Montrose, California
Current Conditions -  °F | °C
As of 5:53 AM on Thursday 30 Oct 2014 (Local Time) from KBUR Reporting Station
Clear Clear  
Wind Chill: 60°   Ceiling: Unl
Heat Index: 60°   Visibility: 10mi
Dew Point: 44°   Wind: 5mph
Humidity: 55%   Direction: 330°NNW
Pressure: 29.98"   Gusts: NA
Location:  34.21°N, 118.22°W
Report Text: KBUR 301253Z 33004KT 10SM CLR 16/07 A2998 RMK AO2 SLP140 T01560067
Loading
Personal Weather Stations






























Interactive Weather Map
Tropical Storm Tracking
New forecast layout! Learn more

10-Day Weather Forecast

Advertisements
Track Severe Weather on mobile